Time;durP1;ratioP1;P1;durP2;ratioP2;P2;SDS_P1;SDS_P2;PMS_P1;PMS_P2;Temp;Humidity;BMP_temperature;BMP_pressure;BME280_temperature;BME280_humidity;BME280_pressure;Samples;Min_cycle;Max_cycle;Signal;HPM_P1;HPM_P2
2022/09/25 00:01:12;;;;;;;11.13;5.63;;;10.80;99.90;;;;;;5067357;28;20606;-73
2022/09/25 00:03:40;;;;;;;9.37;4.23;;;10.80;99.90;;;;;;5075784;28;20224;-73
2022/09/25 00:06:11;;;;;;;11.27;4.30;;;10.70;99.90;;;;;;5074971;28;20225;-72
2022/09/25 00:08:38;;;;;;;10.43;4.67;;;10.70;99.90;;;;;;5080165;28;20566;-72
2022/09/25 00:11:09;;;;;;;11.20;4.80;;;10.70;99.90;;;;;;5083108;28;20221;-74
2022/09/25 00:13:36;;;;;;;10.33;4.37;;;10.60;99.90;;;;;;5059771;28;20209;-73
2022/09/25 00:16:04;;;;;;;10.10;4.30;;;10.60;99.90;;;;;;5081761;28;20227;-73
2022/09/25 00:21:17;;;;;;;10.20;4.23;;;10.60;99.90;;;;;;5077026;28;20576;-72
2022/09/25 00:23:47;;;;;;;11.83;4.77;;;10.50;99.90;;;;;;5075940;28;20682;-73
2022/09/25 00:26:15;;;;;;;10.43;4.70;;;10.50;99.90;;;;;;5079134;28;20226;-73
2022/09/25 00:28:42;;;;;;;10.03;4.60;;;10.40;99.90;;;;;;5075455;28;20751;-72
2022/09/25 00:31:10;;;;;;;12.00;4.70;;;10.50;99.90;;;;;;5075373;28;20699;-72
2022/09/25 00:33:37;;;;;;;13.23;4.70;;;10.50;99.90;;;;;;5057681;28;20207;-73
2022/09/25 00:36:06;;;;;;;9.97;4.43;;;10.40;99.90;;;;;;5060373;28;20670;-72
2022/09/25 00:38:35;;;;;;;14.67;4.80;;;10.40;99.90;;;;;;5076765;28;20212;-72
2022/09/25 00:41:06;;;;;;;10.37;4.43;;;10.40;99.90;;;;;;5080944;28;20215;-72
2022/09/25 00:43:39;;;;;;;14.93;5.60;;;10.30;99.90;;;;;;5080103;28;20265;-72
2022/09/25 00:46:25;;;;;;;9.37;4.57;;;10.40;99.90;;;;;;5070847;28;20295;-72
2022/09/25 00:48:55;;;;;;;10.00;4.07;;;10.40;99.90;;;;;;5074995;28;20260;-73
2022/09/25 00:51:28;;;;;;;10.90;4.70;;;10.30;99.90;;;;;;5078608;28;20204;-72
2022/09/25 00:54:02;;;;;;;9.60;4.20;;;10.40;99.90;;;;;;5076717;28;20284;-73
2022/09/25 00:56:36;;;;;;;10.20;4.97;;;10.30;99.90;;;;;;5078928;28;20196;-73
2022/09/25 00:59:04;;;;;;;9.00;4.93;;;10.30;99.90;;;;;;5072168;28;20243;-74
2022/09/25 01:01:31;;;;;;;17.07;6.30;;;10.30;99.90;;;;;;5079291;28;20220;-72
2022/09/25 01:03:59;;;;;;;9.90;5.00;;;10.30;99.90;;;;;;5078065;28;20986;-72
2022/09/25 01:06:26;;;;;;;10.23;4.80;;;10.30;99.90;;;;;;5075858;28;20241;-73
2022/09/25 01:08:54;;;;;;;12.90;4.43;;;10.30;99.90;;;;;;5078925;28;20602;-73
2022/09/25 01:11:21;;;;;;;11.23;5.17;;;10.20;99.90;;;;;;5081721;28;20215;-73
2022/09/25 01:13:48;;;;;;;9.67;4.77;;;10.20;99.90;;;;;;5077898;28;20233;-73
2022/09/25 01:16:20;;;;;;;15.30;5.03;;;10.20;99.90;;;;;;5076681;28;20587;-73
2022/09/25 01:19:03;;;;;;;13.03;4.70;;;10.20;99.90;;;;;;5066575;28;20239;-73
2022/09/25 01:21:37;;;;;;;10.97;5.17;;;10.30;99.90;;;;;;5054188;28;20238;-74
2022/09/25 01:24:28;;;;;;;12.33;4.90;;;10.30;99.90;;;;;;5077670;28;20203;-72
2022/09/25 01:27:18;;;;;;;9.47;4.97;;;10.30;99.90;;;;;;5082445;28;20335;-72
2022/09/25 01:30:11;;;;;;;10.13;5.47;;;10.20;99.90;;;;;;5081126;28;20208;-73
2022/09/25 01:32:43;;;;;;;10.23;4.80;;;10.20;99.90;;;;;;5065713;28;20251;-73
2022/09/25 01:35:25;;;;;;;10.40;4.63;;;10.20;99.90;;;;;;5081867;28;20708;-72
2022/09/25 01:38:15;;;;;;;11.93;5.07;;;10.20;99.90;;;;;;5067224;28;20215;-72
2022/09/25 01:40:52;;;;;;;12.10;5.33;;;10.10;99.90;;;;;;5076360;28;20267;-73
2022/09/25 01:43:25;;;;;;;11.00;5.20;;;10.30;99.90;;;;;;5078432;28;20204;-72
2022/09/25 01:45:57;;;;;;;12.33;5.23;;;10.30;99.90;;;;;;5063390;28;20298;-72
2022/09/25 01:48:27;;;;;;;13.57;5.13;;;10.10;99.90;;;;;;5082201;28;20635;-73
2022/09/25 01:51:06;;;;;;;14.23;5.20;;;10.10;99.90;;;;;;5081331;28;20231;-72
2022/09/25 01:53:39;;;;;;;10.90;4.40;;;10.00;99.90;;;;;;5061280;28;20200;-73
2022/09/25 01:57:03;;;;;;;11.17;4.63;;;10.20;99.90;;;;;;5080501;28;20620;-73
2022/09/25 01:59:59;;;;;;;9.47;4.60;;;10.00;99.90;;;;;;5015429;28;21002;-74
2022/09/25 02:02:32;;;;;;;14.27;4.73;;;9.90;99.90;;;;;;5061806;28;20277;-73
2022/09/25 02:05:21;;;;;;;8.90;4.53;;;9.90;99.90;;;;;;5080787;28;20249;-73
2022/09/25 02:07:54;;;;;;;12.43;4.90;;;9.90;99.90;;;;;;5077801;28;20220;-73
2022/09/25 02:10:28;;;;;;;11.57;4.77;;;9.70;99.90;;;;;;5063115;28;20207;-73
2022/09/25 02:13:02;;;;;;;16.90;5.50;;;9.60;99.90;;;;;;5081679;28;20207;-74
2022/09/25 02:15:33;;;;;;;11.90;5.77;;;10.10;99.90;;;;;;5078401;28;20205;-73
2022/09/25 02:21:11;;;;;;;13.33;5.83;;;9.80;99.90;;;;;;5080796;28;20204;-73
2022/09/25 02:24:01;;;;;;;10.40;5.03;;;9.70;99.90;;;;;;5080713;28;20208;-72
2022/09/25 02:26:33;;;;;;;9.67;4.83;;;9.70;99.90;;;;;;5060004;28;20696;-73
2022/09/25 02:29:01;;;;;;;8.07;4.43;;;9.70;99.90;;;;;;5081483;28;20631;-74
2022/09/25 02:31:37;;;;;;;10.63;5.20;;;9.60;99.90;;;;;;5079549;28;20298;-72
2022/09/25 02:34:05;;;;;;;8.10;4.00;;;9.60;99.90;;;;;;5079379;28;20234;-72
2022/09/25 02:36:39;;;;;;;12.47;4.53;;;9.60;99.90;;;;;;5066464;28;20582;-73
2022/09/25 02:39:08;;;;;;;10.00;4.67;;;9.60;99.90;;;;;;5080797;28;20302;-73
2022/09/25 02:41:51;;;;;;;9.57;4.03;;;9.40;99.90;;;;;;5078692;28;20207;-72
2022/09/25 02:44:34;;;;;;;15.80;4.50;;;9.50;99.90;;;;;;5059692;28;20294;-72
2022/09/25 02:47:33;;;;;;;8.17;4.67;;;10.20;99.90;;;;;;5060748;28;20765;-73
2022/09/25 02:50:11;;;;;;;7.90;4.43;;;9.40;99.90;;;;;;5084121;28;20231;-72
2022/09/25 02:53:07;;;;;;;9.23;4.60;;;9.40;99.90;;;;;;5082501;28;20225;-73
2022/09/25 02:55:52;;;;;;;7.83;3.83;;;9.40;99.90;;;;;;5060520;28;20714;-73
2022/09/25 02:58:40;;;;;;;7.40;3.77;;;9.50;99.90;;;;;;5080003;28;20726;-73
2022/09/25 03:01:12;;;;;;;9.20;4.37;;;;;;;;;;5078837;28;20227;-75
2022/09/25 03:03:40;;;;;;;8.50;4.53;;;9.70;99.90;;;;;;5059999;28;20555;-73
2022/09/25 03:06:09;;;;;;;7.40;4.20;;;10.30;99.90;;;;;;5079955;28;20278;-72
2022/09/25 03:08:41;;;;;;;11.63;4.50;;;9.10;99.90;;;;;;5077194;28;20207;-73
2022/09/25 03:11:13;;;;;;;9.97;4.27;;;9.80;99.90;;;;;;5079751;28;20198;-74
2022/09/25 03:13:43;;;;;;;9.60;4.30;;;9.30;99.90;;;;;;5080515;28;20210;-71
2022/09/25 03:16:22;;;;;;;6.37;3.83;;;9.50;99.90;;;;;;5059109;28;20227;-73
2022/09/25 03:18:50;;;;;;;6.93;3.97;;;9.30;99.90;;;;;;5079430;28;20596;-74
2022/09/25 03:21:17;;;;;;;11.93;4.90;;;9.00;99.90;;;;;;5079488;28;20620;-73
2022/09/25 03:23:44;;;;;;;7.27;3.87;;;9.60;99.90;;;;;;5078262;28;20209;-73
2022/09/25 03:26:11;;;;;;;12.07;4.20;;;9.40;99.90;;;;;;5077918;28;20201;-74
2022/09/25 03:28:38;;;;;;;12.63;4.07;;;9.30;99.90;;;;;;5080653;28;20198;-74
2022/09/25 03:31:09;;;;;;;9.77;4.23;;;9.40;99.90;;;;;;5075994;28;20277;-73
2022/09/25 03:33:41;;;;;;;10.40;3.97;;;9.30;99.90;;;;;;5058513;28;20322;-75
2022/09/25 03:36:13;;;;;;;10.50;4.33;;;9.20;99.90;;;;;;5074517;28;20193;-73
2022/09/25 03:38:41;;;;;;;7.87;4.53;;;9.10;99.90;;;;;;5076425;28;20212;-73
2022/09/25 03:41:09;;;;;;;13.73;4.00;;;8.90;99.90;;;;;;5061552;28;20201;-74
2022/09/25 03:43:38;;;;;;;9.33;4.00;;;8.90;99.90;;;;;;5068024;28;20453;-74
2022/09/25 03:46:09;;;;;;;9.37;4.10;;;9.00;99.90;;;;;;5056914;28;20226;-75
2022/09/25 03:48:37;;;;;;;13.50;4.27;;;9.10;99.90;;;;;;5074174;28;20239;-73
2022/09/25 03:51:05;;;;;;;9.90;4.13;;;8.90;99.90;;;;;;5079371;28;20221;-73
2022/09/25 03:53:32;;;;;;;11.77;4.20;;;9.00;99.90;;;;;;5060879;28;20322;-73
2022/09/25 03:56:00;;;;;;;9.73;4.70;;;9.20;99.90;;;;;;5075677;28;20196;-73
2022/09/25 03:58:28;;;;;;;13.43;4.87;;;8.80;99.90;;;;;;5077979;28;20245;-73
2022/09/25 04:00:56;;;;;;;10.70;4.10;;;8.90;99.90;;;;;;5076389;28;20695;-73
2022/09/25 04:03:27;;;;;;;8.10;4.40;;;8.90;99.90;;;;;;5060531;28;20212;-73
2022/09/25 04:05:56;;;;;;;10.67;4.60;;;8.90;99.90;;;;;;5061230;28;20210;-72
2022/09/25 04:08:25;;;;;;;11.40;4.57;;;9.30;99.90;;;;;;5077763;28;20257;-73
2022/09/25 04:10:55;;;;;;;8.47;4.13;;;8.90;99.90;;;;;;5078457;28;20736;-74
2022/09/25 04:13:23;;;;;;;8.77;3.90;;;8.80;99.90;;;;;;5057454;28;20677;-72
2022/09/25 04:15:52;;;;;;;7.87;4.63;;;8.90;99.90;;;;;;5076591;28;20737;-73
2022/09/25 04:18:19;;;;;;;8.47;4.37;;;8.90;99.90;;;;;;5075820;28;20296;-73
2022/09/25 04:20:50;;;;;;;14.03;4.17;;;8.80;99.90;;;;;;5067364;28;20238;-73
2022/09/25 04:23:17;;;;;;;10.13;4.20;;;8.90;99.90;;;;;;5078744;28;20218;-73
2022/09/25 04:25:44;;;;;;;12.07;4.43;;;8.80;99.90;;;;;;5075134;28;20668;-71
2022/09/25 04:28:11;;;;;;;9.97;4.13;;;9.50;99.90;;;;;;5075600;28;20598;-72
2022/09/25 04:30:38;;;;;;;9.13;4.63;;;8.80;99.90;;;;;;5073822;28;20198;-73
2022/09/25 04:35:51;;;;;;;7.17;4.23;;;8.80;99.90;;;;;;5074704;28;20198;-74
2022/09/25 04:38:17;;;;;;;9.23;3.83;;;8.80;99.90;;;;;;5059872;28;20219;-73
2022/09/25 04:40:45;;;;;;;12.17;4.20;;;8.80;99.90;;;;;;5067958;28;20214;-73
2022/09/25 04:43:12;;;;;;;12.30;4.13;;;8.80;99.90;;;;;;5076328;28;20656;-73
2022/09/25 04:45:39;;;;;;;10.03;4.10;;;8.70;99.90;;;;;;5077765;28;20315;-73
2022/09/25 04:48:06;;;;;;;10.53;4.10;;;8.80;99.90;;;;;;5078043;28;20265;-73
2022/09/25 04:50:34;;;;;;;12.97;3.97;;;8.60;99.90;;;;;;5079846;28;20690;-73
2022/09/25 04:53:06;;;;;;;9.83;3.60;;;8.80;99.90;;;;;;5073969;28;20289;-72
2022/09/25 04:55:33;;;;;;;8.33;4.00;;;8.80;99.90;;;;;;5062500;28;20273;-74
2022/09/25 04:58:00;;;;;;;7.43;3.87;;;8.80;99.90;;;;;;5059473;28;20298;-74
2022/09/25 05:00:31;;;;;;;11.57;3.77;;;8.80;99.90;;;;;;5060425;28;20263;-73
2022/09/25 05:02:58;;;;;;;8.17;3.73;;;8.80;99.90;;;;;;5078545;28;20325;-73
2022/09/25 05:05:26;;;;;;;10.90;3.83;;;8.80;99.90;;;;;;5078265;28;20205;-73
2022/09/25 05:08:00;;;;;;;10.40;4.20;;;8.80;99.90;;;;;;5065570;28;20265;-74
2022/09/25 05:10:30;;;;;;;10.40;3.90;;;8.80;99.90;;;;;;5078529;28;20193;-73
2022/09/25 05:12:59;;;;;;;9.57;4.10;;;9.30;99.90;;;;;;5059611;28;20259;-73
2022/09/25 05:15:28;;;;;;;9.00;3.60;;;8.80;99.90;;;;;;5080194;28;20291;-73
2022/09/25 05:18:06;;;;;;;10.67;4.43;;;8.80;99.90;;;;;;5078096;28;20575;-74
2022/09/25 05:20:34;;;;;;;10.03;4.00;;;8.80;99.90;;;;;;5059631;28;20201;-73
2022/09/25 05:23:03;;;;;;;20.10;4.07;;;8.80;99.90;;;;;;5066470;28;20206;-74
2022/09/25 05:25:30;;;;;;;8.00;3.60;;;9.00;99.90;;;;;;5061752;28;20202;-73
2022/09/25 05:27:59;;;;;;;11.63;3.67;;;8.80;99.90;;;;;;5052208;28;20232;-73
2022/09/25 05:30:29;;;;;;;6.27;3.30;;;8.80;99.90;;;;;;5078493;28;20526;-74
2022/09/25 05:32:57;;;;;;;11.80;4.30;;;8.80;99.90;;;;;;5074584;28;20689;-73
2022/09/25 05:35:26;;;;;;;6.13;3.30;;;8.70;99.90;;;;;;5059446;28;20221;-74
2022/09/25 05:37:53;;;;;;;9.60;3.87;;;8.80;99.90;;;;;;5078279;28;20259;-74
2022/09/25 05:40:20;;;;;;;8.73;4.00;;;8.80;99.90;;;;;;5072970;28;20247;-74
2022/09/25 05:42:48;;;;;;;11.40;4.20;;;8.80;99.90;;;;;;5058565;28;20213;-74
2022/09/25 05:45:16;;;;;;;8.33;3.67;;;8.80;99.90;;;;;;5081057;28;20207;-73
2022/09/25 05:47:43;;;;;;;11.83;3.90;;;8.70;99.90;;;;;;5076437;28;20716;-73
2022/09/25 05:50:13;;;;;;;10.37;4.20;;;9.60;99.90;;;;;;5078553;28;20204;-75
2022/09/25 05:52:40;;;;;;;11.67;4.00;;;8.80;99.90;;;;;;5058296;28;20559;-75
2022/09/25 05:55:09;;;;;;;7.07;3.90;;;8.70;99.90;;;;;;5077553;28;20289;-75
2022/09/25 05:57:37;;;;;;;9.00;3.90;;;8.50;99.90;;;;;;5052193;28;20625;-76
2022/09/25 06:00:07;;;;;;;7.27;2.97;;;8.90;99.90;;;;;;5061233;28;20240;-76
2022/09/25 06:02:34;;;;;;;8.33;3.53;;;8.90;99.90;;;;;;5082804;28;20218;-74
2022/09/25 06:05:02;;;;;;;8.83;3.57;;;8.90;99.90;;;;;;5078834;28;20254;-74
2022/09/25 06:07:32;;;;;;;8.33;3.87;;;8.90;99.90;;;;;;5076521;28;20231;-76
2022/09/25 06:09:59;;;;;;;7.37;3.87;;;8.90;99.90;;;;;;5084182;28;20221;-75
2022/09/25 06:12:28;;;;;;;13.63;4.40;;;8.90;99.90;;;;;;5075066;28;20235;-74
2022/09/25 06:14:55;;;;;;;7.93;4.30;;;9.00;99.90;;;;;;5082128;28;20200;-74
2022/09/25 06:17:22;;;;;;;14.23;4.00;;;9.10;99.90;;;;;;5088785;28;20222;-74
2022/09/25 06:19:49;;;;;;;9.70;4.20;;;9.10;99.90;;;;;;5086670;28;20208;-74
2022/09/25 06:22:16;;;;;;;10.37;4.17;;;9.00;99.90;;;;;;5062835;28;20587;-74
2022/09/25 06:24:42;;;;;;;9.43;4.17;;;9.30;99.90;;;;;;5079247;28;20261;-74
2022/09/25 06:27:09;;;;;;;11.80;4.00;;;9.40;99.90;;;;;;5082714;28;20682;-74
2022/09/25 06:29:36;;;;;;;8.37;4.93;;;9.50;99.90;;;;;;5085292;28;20684;-73
2022/09/25 06:32:03;;;;;;;11.20;5.10;;;9.60;99.90;;;;;;5080777;28;20208;-74
2022/09/25 06:34:30;;;;;;;10.37;4.00;;;9.70;99.90;;;;;;5082622;28;20281;-74
2022/09/25 06:36:59;;;;;;;8.77;4.20;;;9.90;99.90;;;;;;5084615;28;20287;-74
2022/09/25 06:39:26;;;;;;;13.77;4.63;;;9.90;99.90;;;;;;5084151;28;20744;-74
2022/09/25 06:41:53;;;;;;;14.53;6.43;;;10.00;99.90;;;;;;5084507;28;20210;-74
2022/09/25 06:44:21;;;;;;;13.70;6.40;;;10.10;99.90;;;;;;5078462;28;20214;-74
2022/09/25 06:46:50;;;;;;;16.40;6.40;;;10.40;99.90;;;;;;5082580;28;20254;-73
2022/09/25 06:49:17;;;;;;;9.60;6.07;;;10.90;99.90;;;;;;5077527;28;20298;-74
2022/09/25 06:51:44;;;;;;;15.57;8.23;;;11.40;99.90;;;;;;5083205;28;20257;-73
2022/09/25 06:54:13;;;;;;;12.43;5.13;;;12.60;99.90;;;;;;5084567;28;20672;-74
2022/09/25 06:56:40;;;;;;;9.27;4.90;;;12.20;99.90;;;;;;5086326;28;20196;-73
2022/09/25 06:59:08;;;;;;;18.63;6.43;;;12.00;99.90;;;;;;5080915;28;20236;-74
2022/09/25 07:01:35;;;;;;;10.53;4.83;;;12.40;99.90;;;;;;5076923;28;20207;-74
2022/09/25 07:04:02;;;;;;;9.27;5.30;;;12.90;99.90;;;;;;5064086;28;20768;-74
2022/09/25 07:06:31;;;;;;;12.20;7.40;;;12.90;99.90;;;;;;5081367;28;20257;-74
2022/09/25 07:08:58;;;;;;;9.13;5.23;;;13.40;99.90;;;;;;5068686;28;20632;-73
2022/09/25 07:11:27;;;;;;;16.43;7.77;;;13.80;99.90;;;;;;5082840;28;20212;-74
2022/09/25 07:13:54;;;;;;;11.80;5.10;;;13.70;99.90;;;;;;5078081;28;20223;-74
2022/09/25 07:16:28;;;;;;;11.40;6.60;;;13.70;99.90;;;;;;5077135;28;20262;-74
2022/09/25 07:18:59;;;;;;;11.17;5.27;;;13.90;99.90;;;;;;5079559;28;20577;-74
2022/09/25 07:21:29;;;;;;;6.63;4.27;;;14.10;99.90;;;;;;5065783;28;20551;-73
2022/09/25 07:23:57;;;;;;;6.10;5.00;;;14.20;99.90;;;;;;5067081;28;20207;-73
2022/09/25 07:26:27;;;;;;;7.23;3.37;;;14.40;99.90;;;;;;5074014;28;20192;-74
2022/09/25 07:29:03;;;;;;;5.77;1.80;;;14.60;99.90;;;;;;5075807;28;20232;-73
2022/09/25 07:31:32;;;;;;;3.93;2.27;;;14.80;99.90;;;;;;5077453;28;20657;-74
2022/09/25 07:34:04;;;;;;;3.30;1.60;;;14.80;99.90;;;;;;5060945;28;20229;-74
2022/09/25 07:36:37;;;;;;;2.63;1.43;;;15.10;99.90;;;;;;5062948;28;20211;-73
2022/09/25 07:39:05;;;;;;;5.00;1.90;;;15.30;99.90;;;;;;5083135;28;20702;-74
2022/09/25 07:41:33;;;;;;;4.88;2.78;;;;;;;;;;5078376;28;20291;-75
2022/09/25 07:44:00;;;;;;;6.57;2.78;;;15.60;99.90;;;;;;5063215;28;20727;-73
2022/09/25 07:46:47;;;;;;;5.47;1.40;;;15.80;99.90;;;;;;5080715;28;20228;-73
2022/09/25 07:49:14;;;;;;;4.47;3.30;;;16.20;99.90;;;;;;5064549;28;20453;-73
2022/09/25 07:51:41;;;;;;;5.10;2.55;;;16.50;99.90;;;;;;5075581;28;20201;-74
2022/09/25 07:54:08;;;;;;;3.30;1.20;;;16.70;99.90;;;;;;5079391;28;20235;-73
2022/09/25 07:56:36;;;;;;;4.85;1.35;;;16.90;99.90;;;;;;5073549;28;20207;-74
2022/09/25 07:59:04;;;;;;;6.32;1.80;;;17.80;99.90;;;;;;5062993;28;20223;-74
2022/09/25 08:01:31;;;;;;;2.40;1.75;;;17.40;99.90;;;;;;5055704;28;20224;-74
2022/09/25 08:04:00;;;;;;;4.38;2.00;;;17.80;99.90;;;;;;5071780;28;20200;-74
2022/09/25 08:06:27;;;;;;;2.95;1.33;;;17.60;99.90;;;;;;5074255;28;20380;-74
2022/09/25 08:08:54;;;;;;;5.28;1.42;;;17.80;99.90;;;;;;5067475;28;20232;-74
2022/09/25 08:11:22;;;;;;;9.05;1.13;;;18.20;99.90;;;;;;5064889;28;20224;-73
2022/09/25 08:13:49;;;;;;;2.92;1.20;;;;;;;;;;5063697;28;20237;-74
2022/09/25 08:16:21;;;;;;;3.13;0.93;;;;;;;;;;5067416;28;20227;-74
2022/09/25 08:18:52;;;;;;;3.70;1.23;;;19.20;99.90;;;;;;5082700;28;20208;-74
2022/09/25 08:21:20;;;;;;;4.05;1.08;;;19.40;99.90;;;;;;5059170;28;20672;-74
2022/09/25 08:23:52;;;;;;;3.58;1.10;;;19.70;99.90;;;;;;5063319;28;20736;-74
2022/09/25 08:26:20;;;;;;;5.20;1.40;;;20.00;99.90;;;;;;5060686;28;20220;-74
2022/09/25 08:28:49;;;;;;;2.03;0.93;;;20.20;99.90;;;;;;5084380;28;20303;-75
2022/09/25 08:31:18;;;;;;;3.55;1.10;;;20.30;99.90;;;;;;5065358;28;20220;-74
2022/09/25 08:33:46;;;;;;;6.72;1.00;;;20.40;99.90;;;;;;5077004;28;20231;-74
2022/09/25 08:36:13;;;;;;;2.75;1.08;;;20.50;99.90;;;;;;5065967;28;20204;-75
2022/09/25 08:38:40;;;;;;;4.80;1.00;;;20.70;99.90;;;;;;5076282;28;20208;-74
2022/09/25 08:41:14;;;;;;;3.15;1.23;;;20.70;99.90;;;;;;5078635;28;20695;-74
2022/09/25 08:43:58;;;;;;;3.53;1.33;;;20.40;99.90;;;;;;5059540;28;20207;-74
2022/09/25 08:49:39;;;;;;;3.95;1.13;;;20.20;99.90;;;;;;5077162;28;20719;-75
2022/09/25 08:52:11;;;;;;;2.28;0.80;;;20.20;99.90;;;;;;5077455;28;20210;-74
2022/09/25 08:54:39;;;;;;;2.55;0.85;;;20.20;99.90;;;;;;5074953;28;20580;-72
2022/09/25 08:57:36;;;;;;;1.52;0.68;;;20.20;99.90;;;;;;5076242;28;20204;-77
2022/09/25 09:00:19;;;;;;;4.85;1.05;;;20.30;99.90;;;;;;5071851;28;20270;-75
2022/09/25 09:02:57;;;;;;;2.75;1.15;;;20.30;99.90;;;;;;5073883;28;20630;-74
2022/09/25 09:05:36;;;;;;;1.75;0.93;;;20.30;99.90;;;;;;5071997;28;20199;-75
2022/09/25 09:08:15;;;;;;;3.35;0.70;;;20.20;99.90;;;;;;5073148;28;20327;-76
2022/09/25 09:10:53;;;;;;;1.80;0.60;;;20.10;99.90;;;;;;5062600;28;20312;-76
2022/09/25 09:13:43;;;;;;;1.73;0.70;;;20.00;99.90;;;;;;5076259;28;20221;-76
2022/09/25 09:16:25;;;;;;;3.25;0.95;;;20.00;99.90;;;;;;5066233;28;20680;-75
2022/09/25 09:18:54;;;;;;;3.13;0.82;;;20.00;99.90;;;;;;5074414;28;20576;-76
2022/09/25 09:21:31;;;;;;;3.25;0.68;;;19.90;99.90;;;;;;5074840;28;20204;-76
2022/09/25 09:24:07;;;;;;;2.40;0.60;;;19.80;99.90;;;;;;5077435;28;20240;-76
2022/09/25 09:26:54;;;;;;;3.00;0.70;;;19.70;99.90;;;;;;5058664;28;20203;-75
2022/09/25 09:29:39;;;;;;;2.60;0.65;;;19.60;99.90;;;;;;5043735;28;20315;-76
2022/09/25 09:32:27;;;;;;;2.47;0.70;;;19.50;99.90;;;;;;5059898;28;20216;-75
2022/09/25 09:35:12;;;;;;;2.05;0.60;;;19.50;99.90;;;;;;5074237;28;20284;-75
2022/09/25 09:37:43;;;;;;;1.80;0.88;;;19.50;99.90;;;;;;5065547;28;20243;-75
2022/09/25 09:40:38;;;;;;;4.13;1.02;;;19.40;99.90;;;;;;5065878;28;20254;-79
2022/09/25 09:43:33;;;;;;;3.55;0.82;;;19.30;99.90;;;;;;5085797;28;20208;-80
2022/09/25 09:46:26;;;;;;;3.40;0.85;;;19.40;99.90;;;;;;5070491;28;20235;-79
2022/09/25 09:49:29;;;;;;;2.78;0.80;;;19.30;99.90;;;;;;5083246;28;20224;-80
2022/09/25 09:52:08;;;;;;;4.57;1.00;;;19.30;99.90;;;;;;4961457;28;20200;-80
2022/09/25 09:55:11;;;;;;;2.63;1.05;;;19.30;99.90;;;;;;5054756;28;20200;-79
2022/09/25 09:57:51;;;;;;;1.35;0.95;;;19.30;99.90;;;;;;5094649;28;20203;-79
2022/09/25 10:00:23;;;;;;;2.92;1.00;;;19.20;99.90;;;;;;5084980;28;20208;-80
2022/09/25 10:03:00;;;;;;;2.35;0.98;;;19.40;99.90;;;;;;5094085;28;20216;-79
2022/09/25 10:05:41;;;;;;;4.82;1.08;;;19.40;99.90;;;;;;5086999;28;20571;-81
2022/09/25 10:08:09;;;;;;;2.58;0.80;;;19.30;99.90;;;;;;5090423;28;20223;-79
2022/09/25 10:10:42;;;;;;;1.58;0.70;;;19.20;99.90;;;;;;5083887;28;20291;-79
2022/09/25 10:13:18;;;;;;;2.20;0.80;;;19.20;99.90;;;;;;5073206;28;20207;-80
2022/09/25 10:16:15;;;;;;;6.28;1.98;;;19.30;99.90;;;;;;5081777;28;20650;-79
2022/09/25 10:18:51;;;;;;;3.08;0.80;;;19.10;99.90;;;;;;5084116;28;20227;-79
2022/09/25 10:21:23;;;;;;;2.00;0.70;;;18.90;99.90;;;;;;5077497;28;20195;-79
2022/09/25 10:23:53;;;;;;;3.55;0.75;;;18.60;99.90;;;;;;5063650;28;20232;-80
2022/09/25 10:26:23;;;;;;;2.65;1.05;;;18.40;99.90;;;;;;5080554;28;20204;-79
2022/09/25 10:28:50;;;;;;;4.30;1.17;;;18.40;99.90;;;;;;5073887;28;20716;-79
2022/09/25 10:31:19;;;;;;;4.35;0.90;;;18.50;99.90;;;;;;5062099;28;20215;-80
2022/09/25 10:34:26;;;;;;;1.77;0.82;;;18.50;99.90;;;;;;5080820;28;20586;-80
2022/09/25 10:36:53;;;;;;;0.70;0.70;;;18.40;99.90;;;;;;5081175;28;20281;-80
2022/09/25 10:39:32;;;;;;;1.52;1.08;;;18.40;99.90;;;;;;5063687;28;20819;-84
2022/09/25 10:42:48;;;;;;;4.70;0.93;;;18.50;99.90;;;;;;5077876;28;20667;-77
2022/09/25 10:45:30;;;;;;;5.95;1.15;;;18.50;99.90;;;;;;5028756;28;20211;-76
2022/09/25 10:51:07;;;;;;;3.78;1.10;;;18.50;99.90;;;;;;5033462;28;20210;-73
2022/09/25 10:53:34;;;;;;;2.47;0.63;;;18.50;99.90;;;;;;5078385;28;20208;-75
2022/09/25 10:56:08;;;;;;;2.75;0.88;;;18.50;99.90;;;;;;5082889;28;20692;-73
2022/09/25 10:59:00;;;;;;;6.32;3.13;;;18.40;99.90;;;;;;5079723;28;20212;-75
2022/09/25 11:01:37;;;;;;;2.10;1.10;;;18.20;99.90;;;;;;5074680;28;20329;-74
2022/09/25 11:04:18;;;;;;;6.78;2.05;;;18.10;99.90;;;;;;5075982;28;20210;-74
2022/09/25 11:07:06;;;;;;;5.68;2.85;;;18.20;99.90;;;;;;5075375;28;20196;-72
2022/09/25 11:09:42;;;;;;;4.15;1.33;;;18.30;99.90;;;;;;5077317;28;20228;-77
2022/09/25 11:12:15;;;;;;;3.58;1.90;;;18.70;99.90;;;;;;5075354;28;20330;-75
2022/09/25 11:14:57;;;;;;;6.63;1.63;;;18.70;99.90;;;;;;5078363;28;20692;-75
2022/09/25 11:17:40;;;;;;;2.92;1.00;;;18.90;99.90;;;;;;5078903;28;20238;-77
2022/09/25 11:20:28;;;;;;;7.00;2.58;;;19.10;99.90;;;;;;5064999;28;20208;-76
2022/09/25 11:23:04;;;;;;;2.25;1.40;;;18.90;99.90;;;;;;5058650;28;20923;-76
2022/09/25 11:26:00;;;;;;;1.48;0.70;;;18.70;99.90;;;;;;5084604;28;20244;-76
2022/09/25 11:28:35;;;;;;;1.98;1.05;;;18.80;99.90;;;;;;5076386;28;20258;-73
2022/09/25 11:31:24;;;;;;;2.58;0.80;;;18.80;99.90;;;;;;5072649;28;20238;-75
2022/09/25 11:33:59;;;;;;;1.80;0.70;;;18.90;99.90;;;;;;5062585;28;20644;-75
2022/09/25 11:36:47;;;;;;;2.17;0.80;;;19.10;99.90;;;;;;5078949;28;20213;-75
2022/09/25 11:42:33;;;;;;;1.65;0.75;;;19.50;99.90;;;;;;5075902;28;20227;-75
2022/09/25 11:45:07;;;;;;;2.95;0.77;;;19.50;99.90;;;;;;5075031;28;20565;-74
2022/09/25 11:47:53;;;;;;;1.33;0.80;;;19.40;99.90;;;;;;5077741;28;20208;-76
2022/09/25 11:50:27;;;;;;;2.60;0.75;;;19.20;99.90;;;;;;5059265;28;20223;-75
2022/09/25 11:53:00;;;;;;;2.65;1.23;;;19.00;99.90;;;;;;5076737;28;20207;-76
2022/09/25 11:56:04;;;;;;;4.13;1.00;;;19.10;99.90;;;;;;5063114;28;20212;-74
2022/09/25 11:59:02;;;;;;;2.20;0.80;;;19.20;99.90;;;;;;5075618;28;20200;-76
2022/09/25 12:01:39;;;;;;;3.20;0.80;;;19.20;99.90;;;;;;5077886;28;20707;-76
2022/09/25 12:04:15;;;;;;;1.90;0.68;;;19.10;99.90;;;;;;5072417;28;20644;-75
2022/09/25 12:07:04;;;;;;;3.00;0.88;;;19.10;99.90;;;;;;5076890;28;20265;-75
2022/09/25 12:09:47;;;;;;;2.25;0.70;;;19.00;99.90;;;;;;5075509;28;20238;-76
2022/09/25 12:12:23;;;;;;;1.77;0.70;;;18.80;99.90;;;;;;5078369;28;20199;-76
2022/09/25 12:15:16;;;;;;;2.00;0.70;;;18.50;99.90;;;;;;5077746;28;20210;-75
2022/09/25 12:18:06;;;;;;;3.05;0.82;;;18.20;99.90;;;;;;5074585;28;20712;-74
2022/09/25 12:20:57;;;;;;;4.43;1.77;;;18.00;99.90;;;;;;5077246;28;20196;-74
2022/09/25 12:23:35;;;;;;;3.03;1.40;;;17.80;99.90;;;;;;5080666;28;20199;-74
2022/09/25 12:26:27;;;;;;;1.08;0.85;;;17.50;99.90;;;;;;5075347;28;20817;-71
2022/09/25 12:29:06;;;;;;;1.23;0.77;;;17.40;99.90;;;;;;5071103;28;20223;-74
2022/09/25 12:31:50;;;;;;;1.00;0.88;;;17.30;99.90;;;;;;5077022;28;21439;-74
2022/09/25 12:34:36;;;;;;;2.45;0.88;;;17.20;99.90;;;;;;5075572;28;20231;-74
2022/09/25 12:37:14;;;;;;;1.23;0.93;;;17.00;99.90;;;;;;5055277;28;20230;-76
2022/09/25 12:39:45;;;;;;;2.05;0.80;;;16.90;99.90;;;;;;5081895;28;20934;-75
2022/09/25 12:42:18;;;;;;;2.20;0.80;;;16.90;99.90;;;;;;5081124;28;20210;-74
2022/09/25 12:45:04;;;;;;;0.82;0.63;;;16.70;99.90;;;;;;5078575;28;20327;-75
2022/09/25 12:47:40;;;;;;;0.85;0.60;;;16.70;99.90;;;;;;5081290;28;20336;-74
2022/09/25 12:50:20;;;;;;;0.88;0.70;;;16.60;99.90;;;;;;5076345;28;20322;-75
2022/09/25 12:52:56;;;;;;;2.47;0.57;;;16.60;99.90;;;;;;5064654;28;20259;-75
2022/09/25 12:55:37;;;;;;;0.90;0.70;;;16.70;99.90;;;;;;5073055;28;20206;-75
2022/09/25 12:58:35;;;;;;;0.60;0.60;;;16.70;99.90;;;;;;5061650;28;20318;-74
2022/09/25 13:01:21;;;;;;;1.35;0.70;;;16.90;99.90;;;;;;5072688;28;20311;-75
2022/09/25 13:04:12;;;;;;;1.63;0.70;;;16.90;99.90;;;;;;5079187;28;20216;-75
2022/09/25 13:06:53;;;;;;;1.30;0.70;;;17.00;99.90;;;;;;5081437;28;20239;-75
2022/09/25 13:09:45;;;;;;;3.15;1.00;;;17.10;99.90;;;;;;5081229;28;20222;-75
2022/09/25 13:12:34;;;;;;;1.15;0.82;;;17.20;99.90;;;;;;5077612;28;20660;-75
2022/09/25 13:15:05;;;;;;;2.92;0.95;;;17.50;99.90;;;;;;5060105;28;20704;-75
2022/09/25 13:17:33;;;;;;;2.17;0.80;;;17.70;99.90;;;;;;5077808;28;20754;-76
2022/09/25 13:20:25;;;;;;;3.95;1.00;;;17.80;99.90;;;;;;5083192;28;20229;-75
2022/09/25 13:22:58;;;;;;;1.42;1.00;;;17.90;99.90;;;;;;5083349;28;20212;-74
2022/09/25 13:25:26;;;;;;;2.00;0.80;;;18.00;99.90;;;;;;5083929;28;20196;-75
2022/09/25 13:27:53;;;;;;;7.00;1.05;;;17.90;99.90;;;;;;5068221;28;20294;-74
2022/09/25 13:30:27;;;;;;;2.53;0.90;;;17.90;99.90;;;;;;5086004;28;20259;-74
2022/09/25 13:33:01;;;;;;;1.38;0.80;;;18.00;99.90;;;;;;5080901;28;20700;-74
2022/09/25 13:35:30;;;;;;;2.35;1.05;;;18.10;99.90;;;;;;5084204;28;20253;-76
2022/09/25 13:40:41;;;;;;;1.83;0.93;;;18.30;99.90;;;;;;5082011;28;20272;-74
2022/09/25 13:41:09;;;;;;;3.47;1.00;;;18.40;99.90;;;;;;5089181;28;20203;-74
2022/09/25 13:43:37;;;;;;;3.63;1.38;;;18.40;99.90;;;;;;5061257;28;20245;-74